Time;durP1;ratioP1;P1;durP2;ratioP2;P2;SDS_P1;SDS_P2;PMS_P1;PMS_P2;Temp;Humidity;BMP_temperature;BMP_pressure;BME280_temperature;BME280_humidity;BME280_pressure;Samples;Min_cycle;Max_cycle;Signal;HPM_P1;HPM_P2
2023/04/01 00:02:24;;;;;;;5.50;1.10;;;10.80;99.90;;;;;;5018351;28;20037;-66
2023/04/01 00:04:49;;;;;;;5.43;0.93;;;10.80;99.90;;;;;;5017180;28;20026;-66
2023/04/01 00:07:15;;;;;;;9.40;1.13;;;10.90;99.90;;;;;;5017205;28;20037;-67
2023/04/01 00:09:40;;;;;;;7.03;0.80;;;10.90;99.90;;;;;;5017020;28;20017;-66
2023/04/01 00:12:06;;;;;;;6.63;0.93;;;10.90;99.90;;;;;;5016939;28;20021;-66
2023/04/01 00:14:32;;;;;;;2.88;0.52;;;10.90;99.90;;;;;;5017002;28;20032;-67
2023/04/01 00:16:57;;;;;;;3.58;0.65;;;10.90;99.90;;;;;;5016956;28;20018;-66
2023/04/01 00:19:27;;;;;;;5.88;0.85;;;10.90;99.90;;;;;;5017116;28;20021;-66
2023/04/01 00:21:53;;;;;;;2.28;0.70;;;10.80;99.90;;;;;;5017310;28;20036;-66
2023/04/01 00:24:18;;;;;;;7.00;2.00;;;10.90;99.90;;;;;;5017154;28;20034;-66
2023/04/01 00:26:44;;;;;;;4.53;0.80;;;10.90;99.90;;;;;;5016765;28;20026;-66
2023/04/01 00:29:10;;;;;;;5.47;0.90;;;10.90;99.90;;;;;;5016840;28;20097;-67
2023/04/01 00:31:36;;;;;;;6.93;1.10;;;10.90;99.90;;;;;;5017413;28;20113;-66
2023/04/01 00:34:02;;;;;;;5.75;1.00;;;10.80;99.90;;;;;;5016650;28;20045;-66
2023/04/01 00:36:27;;;;;;;4.22;0.82;;;10.80;99.90;;;;;;5017904;28;20021;-67
2023/04/01 00:38:53;;;;;;;7.72;0.90;;;10.80;99.90;;;;;;5017476;28;20026;-66
2023/04/01 00:41:20;;;;;;;5.18;0.73;;;10.70;99.90;;;;;;5016478;28;20026;-66
2023/04/01 00:43:48;;;;;;;3.92;0.95;;;10.70;99.90;;;;;;5017923;28;20034;-67
2023/04/01 00:46:14;;;;;;;4.45;1.05;;;10.70;99.90;;;;;;5016487;28;20029;-66
2023/04/01 00:48:44;;;;;;;9.43;1.73;;;10.70;99.90;;;;;;5017688;28;20032;-66
2023/04/01 00:51:16;;;;;;;3.85;0.80;;;10.70;99.90;;;;;;5017378;28;20026;-66
2023/04/01 00:53:46;;;;;;;5.43;0.70;;;10.70;99.90;;;;;;5001096;28;20132;-66
2023/04/01 00:56:15;;;;;;;5.00;0.93;;;10.70;99.90;;;;;;5016823;28;20022;-66
2023/04/01 00:58:48;;;;;;;3.42;0.73;;;10.70;99.90;;;;;;5017575;28;20109;-66
2023/04/01 01:01:14;;;;;;;4.32;0.85;;;10.70;99.90;;;;;;5016517;28;20034;-66
2023/04/01 01:03:39;;;;;;;4.35;0.77;;;10.80;99.90;;;;;;5016311;28;20036;-66
2023/04/01 01:06:10;;;;;;;2.08;1.08;;;10.80;99.90;;;;;;5017132;28;20029;-66
2023/04/01 01:09:00;;;;;;;7.68;0.68;;;10.80;99.90;;;;;;5017547;28;20059;-66
2023/04/01 01:11:42;;;;;;;6.20;0.82;;;10.80;99.90;;;;;;5017244;28;20033;-66
2023/04/01 01:14:30;;;;;;;7.90;0.85;;;10.80;99.90;;;;;;5016438;28;20052;-66
2023/04/01 01:17:14;;;;;;;4.00;0.52;;;10.80;99.90;;;;;;5016298;28;20025;-66
2023/04/01 01:19:47;;;;;;;2.20;0.73;;;10.80;99.90;;;;;;5017064;28;20109;-66
2023/04/01 01:22:41;;;;;;;4.53;0.85;;;10.80;99.90;;;;;;5016960;28;20073;-66
2023/04/01 01:25:21;;;;;;;5.53;0.68;;;10.60;99.90;;;;;;5016881;28;20053;-66
2023/04/01 01:28:21;;;;;;;4.72;0.70;;;10.60;99.90;;;;;;5016000;28;20036;-66
2023/04/01 01:30:56;;;;;;;2.25;0.63;;;10.60;99.90;;;;;;4986396;28;20048;-66
2023/04/01 01:33:40;;;;;;;3.40;1.30;;;10.50;99.90;;;;;;5015864;28;20026;-67
2023/04/01 01:36:12;;;;;;;6.30;1.00;;;10.50;99.90;;;;;;5017071;28;20025;-67
2023/04/01 01:38:38;;;;;;;2.22;0.73;;;10.50;99.90;;;;;;5017101;28;20025;-67
2023/04/01 01:41:06;;;;;;;2.20;0.70;;;10.50;99.90;;;;;;5016923;28;20113;-66
2023/04/01 01:43:38;;;;;;;7.75;1.60;;;10.50;99.90;;;;;;5015862;28;20037;-66
2023/04/01 01:46:11;;;;;;;5.95;0.50;;;10.50;99.90;;;;;;5015961;28;20057;-67
2023/04/01 01:48:38;;;;;;;6.85;0.80;;;10.40;99.90;;;;;;5017526;28;20056;-66
2023/04/01 01:51:07;;;;;;;1.60;0.40;;;10.40;99.90;;;;;;5015825;28;20022;-67
2023/04/01 01:53:32;;;;;;;1.75;0.60;;;10.30;99.90;;;;;;5016884;28;20022;-66
2023/04/01 01:55:58;;;;;;;2.35;0.65;;;10.30;99.90;;;;;;5019460;28;20026;-67
2023/04/01 01:58:41;;;;;;;2.10;0.52;;;10.30;99.90;;;;;;5020516;28;20072;-66
2023/04/01 02:01:11;;;;;;;2.88;0.43;;;10.30;99.90;;;;;;5020545;28;20038;-67
2023/04/01 02:03:38;;;;;;;3.90;0.40;;;10.30;99.90;;;;;;5019737;28;20033;-66
2023/04/01 02:06:07;;;;;;;2.92;0.57;;;10.20;99.90;;;;;;5020220;28;20080;-66
2023/04/01 02:08:41;;;;;;;2.53;0.40;;;10.20;99.90;;;;;;5019494;28;20048;-67
2023/04/01 02:11:09;;;;;;;2.47;0.50;;;10.30;99.90;;;;;;5019730;28;20041;-67
2023/04/01 02:13:48;;;;;;;4.60;0.50;;;10.30;99.90;;;;;;5019106;28;20022;-67
2023/04/01 02:16:20;;;;;;;1.95;0.40;;;10.30;99.90;;;;;;5019134;28;20026;-66
2023/04/01 02:18:50;;;;;;;6.85;1.02;;;10.30;99.90;;;;;;5019921;28;20030;-66
2023/04/01 02:21:18;;;;;;;5.03;0.45;;;10.20;99.90;;;;;;5020205;28;20049;-66
2023/04/01 02:23:46;;;;;;;0.90;0.20;;;10.30;99.90;;;;;;5019032;28;20022;-66
2023/04/01 02:26:13;;;;;;;2.33;0.40;;;10.20;99.90;;;;;;5019757;28;20045;-66
2023/04/01 02:28:41;;;;;;;1.67;0.40;;;10.20;99.90;;;;;;5019098;28;20029;-66
2023/04/01 02:31:09;;;;;;;0.55;0.20;;;10.20;99.90;;;;;;5019205;28;20030;-67
2023/04/01 02:33:35;;;;;;;3.33;0.35;;;10.20;99.90;;;;;;5019041;28;20025;-67
2023/04/01 02:36:00;;;;;;;5.78;0.82;;;10.20;99.90;;;;;;5019003;28;20098;-66
2023/04/01 02:38:26;;;;;;;5.47;0.40;;;10.20;99.90;;;;;;5018624;28;20116;-66
2023/04/01 02:40:58;;;;;;;2.47;0.35;;;10.20;99.90;;;;;;5018704;28;20022;-66
2023/04/01 02:43:24;;;;;;;2.53;0.65;;;10.10;99.90;;;;;;5018746;28;20029;-67
2023/04/01 02:45:50;;;;;;;0.95;0.35;;;10.10;99.90;;;;;;5018827;28;20032;-67
2023/04/01 02:48:15;;;;;;;2.30;0.35;;;10.20;99.90;;;;;;5018668;28;20121;-66
2023/04/01 02:50:41;;;;;;;1.60;0.40;;;10.20;99.90;;;;;;5018431;28;20022;-66
2023/04/01 02:53:06;;;;;;;3.08;0.50;;;10.30;99.90;;;;;;5018895;28;20018;-66
2023/04/01 02:55:33;;;;;;;4.75;0.60;;;10.20;99.90;;;;;;5018429;28;20029;-66
2023/04/01 02:57:59;;;;;;;2.33;0.40;;;10.20;99.90;;;;;;5018359;28;20033;-66
2023/04/01 03:00:25;;;;;;;4.05;0.45;;;10.20;99.90;;;;;;5019585;28;20026;-66
2023/04/01 03:02:50;;;;;;;3.58;0.40;;;10.20;99.90;;;;;;5019111;28;20113;-66
2023/04/01 03:05:16;;;;;;;2.50;0.30;;;10.10;99.90;;;;;;5018888;28;20121;-66
2023/04/01 03:07:41;;;;;;;3.60;0.88;;;10.10;99.90;;;;;;5019310;28;20172;-66
2023/04/01 03:10:08;;;;;;;2.13;0.40;;;10.10;99.90;;;;;;5018255;28;20045;-67
2023/04/01 03:12:33;;;;;;;3.28;0.40;;;10.10;99.90;;;;;;5018492;28;20136;-66
2023/04/01 03:14:59;;;;;;;4.65;0.63;;;10.20;99.90;;;;;;5018127;28;20049;-66
2023/04/01 03:17:24;;;;;;;6.68;0.65;;;10.20;99.90;;;;;;5017995;28;20068;-66
2023/04/01 03:19:50;;;;;;;0.28;0.28;;;10.20;99.90;;;;;;5018008;28;20108;-66
2023/04/01 03:22:16;;;;;;;1.60;0.55;;;10.20;99.90;;;;;;5017879;28;20032;-66
2023/04/01 03:24:41;;;;;;;1.10;0.35;;;10.10;99.90;;;;;;5018201;28;20080;-66
2023/04/01 03:27:07;;;;;;;1.65;0.40;;;10.10;99.90;;;;;;5018954;28;20030;-66
2023/04/01 03:29:32;;;;;;;6.15;0.40;;;10.10;99.90;;;;;;5018054;28;20032;-67
2023/04/01 03:31:58;;;;;;;1.83;0.52;;;10.10;99.90;;;;;;5017706;28;20029;-66
2023/04/01 03:34:24;;;;;;;0.57;0.40;;;10.20;99.90;;;;;;5017635;28;20022;-67
2023/04/01 03:36:51;;;;;;;3.28;0.40;;;10.20;99.90;;;;;;5017738;28;20018;-66
2023/04/01 03:39:18;;;;;;;4.35;0.50;;;10.20;99.90;;;;;;5017883;28;20025;-67
2023/04/01 03:41:45;;;;;;;3.85;0.80;;;10.20;99.90;;;;;;5017680;28;20036;-67
2023/04/01 03:44:11;;;;;;;4.15;0.38;;;10.20;99.90;;;;;;5017691;28;20033;-67
2023/04/01 03:46:36;;;;;;;4.47;0.85;;;10.20;99.90;;;;;;5018282;28;20026;-67
2023/04/01 03:49:02;;;;;;;6.85;0.82;;;10.20;99.90;;;;;;5017734;28;20022;-67
2023/04/01 03:51:28;;;;;;;3.60;0.55;;;10.20;99.90;;;;;;5017238;28;20032;-67
2023/04/01 03:53:54;;;;;;;1.15;0.45;;;10.20;99.90;;;;;;5017308;28;20084;-67
2023/04/01 03:56:19;;;;;;;3.42;0.50;;;10.20;99.90;;;;;;5017437;28;20017;-67
2023/04/01 03:58:45;;;;;;;2.13;0.60;;;10.20;99.90;;;;;;5017074;28;20022;-67
2023/04/01 04:01:21;;;;;;;2.33;0.47;;;10.20;99.90;;;;;;5018288;28;20026;-66
2023/04/01 04:03:48;;;;;;;2.58;0.65;;;10.20;99.90;;;;;;5017230;28;20033;-67
2023/04/01 04:06:14;;;;;;;2.47;0.40;;;10.20;99.90;;;;;;5018080;28;20105;-66
2023/04/01 04:08:40;;;;;;;1.92;0.40;;;10.20;99.90;;;;;;5017075;28;20053;-67
2023/04/01 04:11:06;;;;;;;3.53;0.28;;;10.10;99.90;;;;;;5016933;28;20033;-67
2023/04/01 04:13:31;;;;;;;5.03;0.70;;;10.10;99.90;;;;;;5018194;28;20026;-66
2023/04/01 04:15:58;;;;;;;6.05;0.57;;;10.10;99.90;;;;;;5017392;28;20029;-66
2023/04/01 04:18:24;;;;;;;2.22;0.40;;;10.10;99.90;;;;;;5016576;28;20026;-66
2023/04/01 04:20:50;;;;;;;1.05;0.40;;;10.20;99.90;;;;;;5017311;28;20032;-67
2023/04/01 04:23:16;;;;;;;2.70;0.60;;;10.20;99.90;;;;;;5016836;28;20040;-66
2023/04/01 04:25:53;;;;;;;2.97;0.68;;;10.20;99.90;;;;;;5017954;28;20026;-66
2023/04/01 04:28:19;;;;;;;2.38;0.40;;;10.20;99.90;;;;;;5018021;28;20022;-67
2023/04/01 04:30:44;;;;;;;5.03;0.60;;;10.20;99.90;;;;;;5016742;28;20048;-66
2023/04/01 04:33:10;;;;;;;0.57;0.20;;;10.10;99.90;;;;;;5017228;28;20026;-66
2023/04/01 04:35:35;;;;;;;2.83;0.50;;;10.10;99.90;;;;;;5016959;28;20022;-66
2023/04/01 04:38:01;;;;;;;2.42;0.40;;;10.10;99.90;;;;;;5018163;28;20153;-67
2023/04/01 04:40:26;;;;;;;2.03;0.40;;;10.10;99.90;;;;;;5017763;28;20147;-66
2023/04/01 04:42:52;;;;;;;1.98;0.38;;;10.10;99.90;;;;;;5016962;28;20030;-70
2023/04/01 04:45:18;;;;;;;3.30;0.40;;;10.10;99.90;;;;;;5016748;28;20034;-70
2023/04/01 04:47:43;;;;;;;1.10;0.43;;;10.10;99.90;;;;;;5017987;28;20018;-70
2023/04/01 04:50:09;;;;;;;3.65;0.52;;;10.10;99.90;;;;;;5016473;28;20109;-70
2023/04/01 04:52:35;;;;;;;1.55;0.60;;;10.10;99.90;;;;;;5016740;28;20050;-70
2023/04/01 04:55:00;;;;;;;3.80;0.70;;;10.10;99.90;;;;;;5016912;28;20041;-70
2023/04/01 04:57:26;;;;;;;2.00;0.40;;;10.10;99.90;;;;;;5016431;28;20045;-70
2023/04/01 04:59:51;;;;;;;3.78;0.60;;;10.00;99.90;;;;;;5016591;28;20022;-70
2023/04/01 05:02:17;;;;;;;2.63;1.08;;;10.00;99.90;;;;;;5016382;28;20121;-70
2023/04/01 05:04:42;;;;;;;0.80;0.28;;;10.00;99.90;;;;;;5016453;28;20026;-70
2023/04/01 05:07:08;;;;;;;2.22;0.40;;;10.00;99.90;;;;;;5017261;28;20025;-70
2023/04/01 05:09:33;;;;;;;2.38;0.43;;;10.00;99.90;;;;;;5017639;28;20029;-70
2023/04/01 05:11:59;;;;;;;3.00;0.80;;;10.00;99.90;;;;;;5016340;28;20033;-70
2023/04/01 05:14:25;;;;;;;3.25;0.73;;;10.00;99.90;;;;;;5016520;28;20052;-70
2023/04/01 05:16:50;;;;;;;4.30;0.63;;;10.00;99.90;;;;;;5016503;28;20018;-70
2023/04/01 05:19:16;;;;;;;0.50;0.50;;;10.00;99.90;;;;;;5016577;28;20034;-70
2023/04/01 05:21:41;;;;;;;4.22;0.52;;;9.90;99.90;;;;;;5016470;28;20122;-70
2023/04/01 05:24:09;;;;;;;1.63;0.60;;;9.90;99.90;;;;;;5016689;28;20029;-70
2023/04/01 05:26:36;;;;;;;2.80;0.52;;;9.90;99.90;;;;;;5017459;28;20026;-70
2023/04/01 05:29:02;;;;;;;2.20;0.45;;;9.80;99.90;;;;;;5019647;28;20049;-70
2023/04/01 05:31:28;;;;;;;3.40;0.40;;;9.80;99.90;;;;;;5020180;28;20127;-70
2023/04/01 05:33:54;;;;;;;1.73;0.95;;;9.80;99.90;;;;;;5020147;28;20018;-70
2023/04/01 05:36:20;;;;;;;1.23;0.15;;;9.80;99.90;;;;;;5021234;28;20018;-70
2023/04/01 05:38:46;;;;;;;2.15;0.50;;;9.80;99.90;;;;;;5020835;28;20026;-70
2023/04/01 05:41:13;;;;;;;1.73;0.38;;;9.80;99.90;;;;;;5020199;28;20060;-70
2023/04/01 05:43:40;;;;;;;7.78;0.65;;;9.80;99.90;;;;;;5020616;28;20037;-70
2023/04/01 05:46:05;;;;;;;2.83;0.35;;;9.80;99.90;;;;;;5020744;28;20100;-70
2023/04/01 05:48:34;;;;;;;1.38;0.40;;;9.80;99.90;;;;;;5020038;28;20057;-70
2023/04/01 05:51:00;;;;;;;3.33;0.52;;;9.80;99.90;;;;;;5019815;28;20053;-70
2023/04/01 05:53:26;;;;;;;1.25;0.30;;;9.80;99.90;;;;;;5019820;28;20084;-70
2023/04/01 05:55:51;;;;;;;3.83;0.30;;;9.70;99.90;;;;;;5020964;28;20022;-70
2023/04/01 05:58:17;;;;;;;2.30;0.28;;;9.70;99.90;;;;;;5019682;28;20018;-70
2023/04/01 06:00:43;;;;;;;2.13;0.52;;;9.80;99.90;;;;;;5020712;28;20026;-70
2023/04/01 06:03:12;;;;;;;3.38;0.50;;;9.80;99.90;;;;;;5019501;28;20026;-70
2023/04/01 06:05:42;;;;;;;4.18;0.70;;;9.90;99.90;;;;;;5020631;28;20026;-70
2023/04/01 06:08:17;;;;;;;5.68;1.20;;;9.90;99.90;;;;;;5020317;28;20029;-70
2023/04/01 06:10:57;;;;;;;3.42;1.67;;;9.90;99.90;;;;;;5019465;28;20033;-70
2023/04/01 06:13:47;;;;;;;1.92;0.30;;;10.00;99.90;;;;;;5019482;28;20026;-70
2023/04/01 06:16:39;;;;;;;2.08;0.35;;;10.00;99.90;;;;;;5020802;28;20053;-70
2023/04/01 06:19:25;;;;;;;2.65;0.30;;;10.10;99.90;;;;;;5019276;28;20028;-70
2023/04/01 06:22:15;;;;;;;1.73;0.30;;;10.00;99.90;;;;;;5019214;28;20022;-70
2023/04/01 06:24:49;;;;;;;2.58;0.32;;;10.10;99.90;;;;;;5020110;28;20026;-70
2023/04/01 06:27:33;;;;;;;0.73;0.20;;;10.10;99.90;;;;;;5019574;28;20026;-70
2023/04/01 06:30:24;;;;;;;1.30;0.15;;;10.10;99.90;;;;;;5019006;28;20033;-70
2023/04/01 06:33:00;;;;;;;0.95;0.40;;;10.10;99.90;;;;;;5018895;28;20022;-70
2023/04/01 06:35:34;;;;;;;0.45;0.20;;;10.10;99.90;;;;;;5018881;28;20055;-70
2023/04/01 06:38:11;;;;;;;1.20;0.32;;;10.10;99.90;;;;;;5018882;28;20060;-70
2023/04/01 06:41:07;;;;;;;1.27;0.30;;;10.20;99.90;;;;;;5018189;28;20034;-70
2023/04/01 06:43:44;;;;;;;0.30;0.20;;;10.30;99.90;;;;;;5019045;28;20037;-71
2023/04/01 06:46:25;;;;;;;1.08;0.40;;;10.30;99.90;;;;;;5019285;28;20022;-70
2023/04/01 06:49:08;;;;;;;0.45;0.20;;;10.40;99.90;;;;;;5018998;28;20084;-70
2023/04/01 06:52:07;;;;;;;1.33;0.47;;;10.40;99.90;;;;;;5018597;28;20022;-70
2023/04/01 06:54:41;;;;;;;1.63;0.20;;;10.40;99.90;;;;;;5019837;28;20022;-70
2023/04/01 06:57:42;;;;;;;1.85;0.20;;;10.30;99.90;;;;;;5019670;28;20046;-70
2023/04/01 07:00:24;;;;;;;1.38;0.35;;;10.40;99.90;;;;;;5018728;28;20096;-70
2023/04/01 07:03:13;;;;;;;1.35;0.20;;;10.50;99.90;;;;;;5019407;28;20034;-70
2023/04/01 07:05:39;;;;;;;0.68;0.20;;;10.40;99.90;;;;;;5018973;28;20117;-70
2023/04/01 07:08:11;;;;;;;0.47;0.20;;;10.40;99.90;;;;;;5018476;28;20033;-70
2023/04/01 07:10:50;;;;;;;0.93;0.20;;;10.40;99.90;;;;;;5019123;28;20037;-70
2023/04/01 07:13:47;;;;;;;0.10;0.05;;;10.40;99.90;;;;;;5019024;28;20021;-70
2023/04/01 07:16:20;;;;;;;2.05;0.40;;;10.40;99.90;;;;;;5018808;28;20113;-70
2023/04/01 07:18:48;;;;;;;1.88;0.40;;;10.40;99.90;;;;;;5019038;28;20017;-70
2023/04/01 07:21:29;;;;;;;0.20;0.20;;;10.40;99.90;;;;;;5019100;28;20033;-70
2023/04/01 07:24:00;;;;;;;2.72;0.30;;;10.40;99.90;;;;;;5018159;28;20026;-70
2023/04/01 07:26:26;;;;;;;1.10;0.25;;;10.50;99.90;;;;;;5018047;28;20033;-70
2023/04/01 07:28:53;;;;;;;4.75;0.40;;;10.50;99.90;;;;;;5018869;28;20026;-70
2023/04/01 07:31:30;;;;;;;2.30;0.20;;;10.50;99.90;;;;;;5017766;28;20022;-70
2023/04/01 07:34:21;;;;;;;1.77;0.22;;;10.50;99.90;;;;;;5018550;28;20024;-70
2023/04/01 07:36:51;;;;;;;1.50;0.30;;;10.50;99.90;;;;;;5007110;28;20030;-70
2023/04/01 07:39:41;;;;;;;2.40;0.43;;;10.60;99.90;;;;;;5018790;28;20033;-70
2023/04/01 07:42:28;;;;;;;1.73;0.73;;;10.60;99.90;;;;;;5017955;28;20034;-70
2023/04/01 07:45:12;;;;;;;2.80;0.20;;;10.70;99.90;;;;;;5017957;28;20033;-70
2023/04/01 07:48:17;;;;;;;1.75;0.30;;;10.60;99.90;;;;;;5017733;28;20033;-70
2023/04/01 07:50:54;;;;;;;2.28;0.30;;;10.70;99.90;;;;;;5017775;28;20087;-71
2023/04/01 07:53:26;;;;;;;2.47;0.30;;;10.70;99.90;;;;;;5016670;28;20075;-71
2023/04/01 07:56:18;;;;;;;0.55;0.20;;;10.80;99.90;;;;;;5018618;28;20029;-71
2023/04/01 07:58:48;;;;;;;;;;;10.90;99.90;;;;;;5017396;28;20033;-71
2023/04/01 08:01:28;;;;;;;0.28;0.20;;;10.90;99.90;;;;;;5017477;28;19959;-71
2023/04/01 08:04:05;;;;;;;2.00;0.20;;;10.90;99.90;;;;;;5017663;28;20026;-71
2023/04/01 08:07:16;;;;;;;2.80;0.30;;;10.90;99.90;;;;;;5018608;28;20057;-71
2023/04/01 08:09:51;;;;;;;0.17;0.15;;;10.90;99.90;;;;;;4923110;29;20127;-70
2023/04/01 08:12:42;;;;;;;2.70;0.35;;;10.90;99.90;;;;;;4923079;29;20027;-70
2023/04/01 08:15:27;;;;;;;1.55;0.35;;;10.90;99.90;;;;;;4923201;29;20031;-70
2023/04/01 08:17:58;;;;;;;0.43;0.32;;;10.90;99.90;;;;;;4922993;29;20027;-69
2023/04/01 08:20:29;;;;;;;;;;;10.80;99.90;;;;;;4923400;29;20036;-69
2023/04/01 08:23:10;;;;;;;1.25;0.20;;;10.90;99.90;;;;;;4938888;29;19966;-68
2023/04/01 08:25:40;;;;;;;0.60;0.20;;;10.90;99.90;;;;;;4938984;29;20068;-69
2023/04/01 08:28:22;;;;;;;1.17;0.28;;;10.90;99.90;;;;;;4938959;29;20086;-69
2023/04/01 08:31:01;;;;;;;0.47;0.17;;;11.00;99.90;;;;;;4923035;29;20023;-69
2023/04/01 08:33:29;;;;;;;0.40;0.17;;;11.10;99.90;;;;;;4923039;29;20048;-69
2023/04/01 08:36:05;;;;;;;1.67;0.15;;;11.00;99.90;;;;;;4923280;29;20024;-69
2023/04/01 08:38:37;;;;;;;0.73;0.13;;;11.00;99.90;;;;;;4923170;29;20024;-69
2023/04/01 08:41:28;;;;;;;0.60;0.20;;;11.00;99.90;;;;;;4998164;28;20034;-69
2023/04/01 08:44:33;;;;;;;0.47;0.13;;;11.00;99.90;;;;;;5017292;28;20034;-69
2023/04/01 08:46:58;;;;;;;0.35;0.10;;;11.00;99.90;;;;;;5016877;28;20026;-70
2023/04/01 08:49:44;;;;;;;0.60;0.10;;;11.00;99.90;;;;;;5016486;28;20028;-70
2023/04/01 08:52:13;;;;;;;1.65;0.30;;;11.10;99.90;;;;;;5016466;28;20026;-70
2023/04/01 08:54:47;;;;;;;0.20;0.10;;;11.10;99.90;;;;;;5017271;28;20022;-70
2023/04/01 08:57:35;;;;;;;0.52;0.32;;;11.10;99.90;;;;;;5017174;28;20021;-70
2023/04/01 09:00:03;;;;;;;1.13;0.50;;;11.10;99.90;;;;;;5016575;28;20033;-70
2023/04/01 09:03:02;;;;;;;0.20;0.10;;;11.10;99.90;;;;;;5016171;28;20049;-70
2023/04/01 09:05:43;;;;;;;0.20;0.20;;;11.10;99.90;;;;;;5017352;28;20029;-70
2023/04/01 09:08:25;;;;;;;0.10;0.05;;;11.10;99.90;;;;;;5017428;28;20117;-70
2023/04/01 09:11:09;;;;;;;0.60;0.30;;;11.10;99.90;;;;;;5017249;28;20026;-71
2023/04/01 09:13:47;;;;;;;1.75;0.30;;;11.10;99.90;;;;;;5017533;28;20018;-70
2023/04/01 09:16:36;;;;;;;1.52;0.38;;;11.20;99.90;;;;;;5016503;28;20026;-71
2023/04/01 09:19:25;;;;;;;1.30;0.60;;;11.30;99.90;;;;;;5016368;28;20048;-70
2023/04/01 09:22:00;;;;;;;0.15;0.00;;;11.30;99.90;;;;;;5016298;28;20029;-71
2023/04/01 09:24:32;;;;;;;4.32;2.40;;;11.30;99.90;;;;;;5016296;28;20079;-70
2023/04/01 09:27:18;;;;;;;3.45;0.88;;;11.30;99.90;;;;;;5017141;28;20084;-71
2023/04/01 09:30:17;;;;;;;1.90;1.02;;;11.30;99.90;;;;;;5017626;28;20109;-71
2023/04/01 09:32:48;;;;;;;0.47;0.28;;;11.30;99.90;;;;;;5016266;28;20088;-70
2023/04/01 09:35:42;;;;;;;0.20;0.10;;;11.30;99.90;;;;;;5017169;28;20029;-71
2023/04/01 09:38:40;;;;;;;0.20;0.10;;;11.30;99.90;;;;;;5016280;28;20034;-71
2023/04/01 09:41:32;;;;;;;4.35;1.90;;;11.30;99.90;;;;;;5016040;28;20062;-71
2023/04/01 09:44:18;;;;;;;3.70;1.60;;;11.40;99.90;;;;;;5016405;28;20079;-71
2023/04/01 09:47:18;;;;;;;0.10;0.10;;;11.40;99.90;;;;;;5017841;28;20026;-71
2023/04/01 09:50:11;;;;;;;1.95;1.20;;;11.40;99.90;;;;;;5016549;28;20117;-71
2023/04/01 09:52:48;;;;;;;0.35;0.10;;;11.40;99.90;;;;;;5017255;28;20028;-71
2023/04/01 09:56:01;;;;;;;0.17;0.17;;;11.40;99.90;;;;;;5016229;28;20032;-71
2023/04/01 09:59:03;;;;;;;0.15;0.10;;;11.50;99.90;;;;;;5016061;28;20073;-70
2023/04/01 10:01:57;;;;;;;2.05;1.00;;;11.40;99.90;;;;;;5016800;28;20022;-71
2023/04/01 10:04:35;;;;;;;1.20;0.20;;;11.30;99.90;;;;;;5016277;28;20034;-70
2023/04/01 10:07:10;;;;;;;3.20;1.52;;;11.40;99.90;;;;;;5016338;28;20030;-70
2023/04/01 10:10:06;;;;;;;6.78;3.28;;;11.40;99.90;;;;;;5016053;28;20121;-70
2023/04/01 10:12:50;;;;;;;0.88;0.40;;;11.40;99.90;;;;;;5015571;28;20026;-70
2023/04/01 10:15:34;;;;;;;1.42;0.70;;;11.40;99.90;;;;;;5016848;28;20028;-70
2023/04/01 10:18:27;;;;;;;2.67;0.68;;;11.50;99.90;;;;;;5020294;28;20022;-70
2023/04/01 10:21:23;;;;;;;1.25;1.10;;;11.40;99.90;;;;;;5019248;28;20030;-70
2023/04/01 10:24:16;;;;;;;1.52;0.43;;;11.60;99.90;;;;;;5020356;28;20033;-70
2023/04/01 10:27:10;;;;;;;0.52;0.50;;;11.60;99.90;;;;;;5018951;28;20029;-70
2023/04/01 10:30:04;;;;;;;0.22;0.22;;;11.50;99.90;;;;;;5019962;28;20080;-70
2023/04/01 10:32:43;;;;;;;1.55;1.02;;;11.50;99.90;;;;;;5018855;28;20022;-70
2023/04/01 10:35:20;;;;;;;1.52;0.40;;;11.60;99.90;;;;;;5019012;28;20052;-70
2023/04/01 10:38:08;;;;;;;4.13;2.42;;;11.70;99.90;;;;;;5018814;28;20033;-70
2023/04/01 10:41:09;;;;;;;1.15;1.00;;;11.70;99.90;;;;;;5019626;28;20022;-70
2023/04/01 10:43:56;;;;;;;0.73;0.30;;;11.70;99.90;;;;;;5020731;28;20077;-74
2023/04/01 10:46:34;;;;;;;4.60;1.38;;;11.60;99.90;;;;;;5019732;28;20026;-73
2023/04/01 10:49:14;;;;;;;0.40;0.40;;;11.60;99.90;;;;;;5019198;28;20116;-74
2023/04/01 10:52:04;;;;;;;0.95;0.40;;;11.70;99.90;;;;;;5019487;28;20052;-74
2023/04/01 10:54:39;;;;;;;0.80;0.40;;;11.80;99.90;;;;;;5019765;28;20045;-74
2023/04/01 10:57:20;;;;;;;1.02;0.52;;;11.80;99.90;;;;;;5018602;28;20029;-74
2023/04/01 11:00:00;;;;;;;9.90;1.20;;;11.90;99.90;;;;;;5018488;28;20026;-74
2023/04/01 11:02:50;;;;;;;1.42;0.50;;;12.00;99.90;;;;;;5018430;28;20057;-73
2023/04/01 11:05:35;;;;;;;0.30;0.22;;;12.00;99.90;;;;;;5018371;28;20120;-74
2023/04/01 11:08:26;;;;;;;0.50;0.43;;;11.80;99.90;;;;;;5018178;28;20048;-74
2023/04/01 11:11:14;;;;;;;0.82;0.43;;;11.60;99.90;;;;;;5018985;28;20057;-74
2023/04/01 11:14:10;;;;;;;0.52;0.43;;;11.80;99.90;;;;;;5018204;28;20109;-73
2023/04/01 11:16:42;;;;;;;0.43;0.40;;;11.70;99.90;;;;;;5019155;28;20101;-73
2023/04/01 11:19:23;;;;;;;0.88;0.57;;;11.80;99.90;;;;;;5018915;28;20064;-73
2023/04/01 11:22:20;;;;;;;0.80;0.43;;;11.80;99.90;;;;;;5017759;28;20099;-73
2023/04/01 11:24:58;;;;;;;1.23;0.70;;;11.80;99.90;;;;;;5018091;28;20093;-73
2023/04/01 11:28:01;;;;;;;1.05;0.45;;;11.80;99.90;;;;;;5018891;28;20084;-73
2023/04/01 11:30:43;;;;;;;2.22;0.70;;;11.70;99.90;;;;;;5017737;28;20041;-74
2023/04/01 11:33:36;;;;;;;1.02;0.52;;;11.80;99.90;;;;;;5017693;28;20026;-74
2023/04/01 11:36:12;;;;;;;2.67;1.58;;;11.80;99.90;;;;;;5018014;28;20117;-74
2023/04/01 11:38:55;;;;;;;4.45;1.85;;;11.80;99.90;;;;;;5018627;28;20030;-74
2023/04/01 11:41:50;;;;;;;0.90;0.80;;;11.80;99.90;;;;;;5018541;28;20021;-74
2023/04/01 11:44:21;;;;;;;2.20;1.10;;;11.70;99.90;;;;;;5017662;28;20035;-74
2023/04/01 11:46:59;;;;;;;3.27;1.37;;;11.70;99.90;;;;;;5018561;28;20018;-75
2023/04/01 11:49:47;;;;;;;1.95;0.70;;;11.70;99.90;;;;;;5018688;28;20049;-74
2023/04/01 11:52:47;;;;;;;4.05;2.03;;;11.60;99.90;;;;;;5017230;28;20026;-74
2023/04/01 11:55:20;;;;;;;3.67;0.60;;;11.60;99.90;;;;;;5018651;28;20030;-74
2023/04/01 11:58:20;;;;;;;2.63;1.25;;;11.50;99.90;;;;;;5017347;28;20022;-74
2023/04/01 12:01:04;;;;;;;2.55;1.00;;;11.50;99.90;;;;;;5017940;28;20093;-74
2023/04/01 12:03:48;;;;;;;0.80;0.60;;;11.50;99.90;;;;;;5017925;28;20024;-74
2023/04/01 12:06:32;;;;;;;5.65;2.55;;;11.50;99.90;;;;;;5017361;28;20026;-74
2023/04/01 12:09:21;;;;;;;1.10;0.70;;;11.60;99.90;;;;;;5018260;28;20053;-74
2023/04/01 12:12:11;;;;;;;0.60;0.50;;;11.70;99.90;;;;;;5016922;28;20088;-74
2023/04/01 12:14:59;;;;;;;2.00;1.40;;;11.80;99.90;;;;;;5017230;28;20029;-73
2023/04/01 12:17:36;;;;;;;1.73;1.00;;;11.80;99.90;;;;;;5017810;28;20028;-73
2023/04/01 12:20:19;;;;;;;1.30;0.73;;;11.80;99.90;;;;;;5017935;28;20212;-74
2023/04/01 12:23:05;;;;;;;1.48;1.00;;;12.00;99.90;;;;;;5016919;28;20029;-74
2023/04/01 12:26:01;;;;;;;1.38;0.60;;;12.10;99.90;;;;;;5017032;28;20167;-73
2023/04/01 12:28:54;;;;;;;1.20;0.77;;;12.20;99.90;;;;;;5017729;28;20175;-72
2023/04/01 12:31:42;;;;;;;3.05;0.60;;;12.20;99.90;;;;;;5017566;28;20083;-73
2023/04/01 12:34:43;;;;;;;1.27;0.93;;;12.30;99.90;;;;;;5017657;28;20076;-73
2023/04/01 12:37:30;;;;;;;1.05;0.70;;;12.20;99.90;;;;;;5017607;28;20022;-73
2023/04/01 12:40:20;;;;;;;0.32;0.30;;;12.20;99.90;;;;;;5016589;28;20026;-73
2023/04/01 12:42:54;;;;;;;2.13;1.20;;;12.20;99.90;;;;;;5017649;28;20065;-74
2023/04/01 12:45:35;;;;;;;0.60;0.43;;;12.20;99.90;;;;;;5017423;28;20026;-73
2023/04/01 12:48:27;;;;;;;1.00;0.60;;;12.10;99.90;;;;;;5017548;28;20025;-73
2023/04/01 12:51:20;;;;;;;1.02;0.63;;;12.10;99.90;;;;;;5016754;28;20156;-73
2023/04/01 12:54:00;;;;;;;0.88;0.63;;;12.00;99.90;;;;;;5017308;28;20061;-73
2023/04/01 12:56:29;;;;;;;2.03;1.35;;;12.00;99.90;;;;;;5016574;28;20022;-74
2023/04/01 12:59:17;;;;;;;3.25;1.77;;;12.10;99.90;;;;;;5016552;28;20090;-74
2023/04/01 13:02:00;;;;;;;2.88;1.35;;;12.10;99.90;;;;;;5016407;28;20025;-73
2023/04/01 13:04:53;;;;;;;2.65;1.20;;;12.10;99.90;;;;;;5017281;28;20018;-73
2023/04/01 13:07:33;;;;;;;3.10;1.20;;;12.10;99.90;;;;;;5016257;28;20080;-74
2023/04/01 13:10:17;;;;;;;1.05;0.70;;;12.10;99.90;;;;;;5016944;28;20026;-74
2023/04/01 13:13:13;;;;;;;2.45;1.00;;;12.10;99.90;;;;;;5016452;28;20030;-74
2023/04/01 13:16:00;;;;;;;2.97;1.38;;;12.20;99.90;;;;;;5016558;28;20104;-74
2023/04/01 13:18:52;;;;;;;2.08;1.30;;;12.10;99.90;;;;;;5017266;28;20034;-74
2023/04/01 13:21:52;;;;;;;3.72;2.00;;;12.20;99.90;;;;;;5017077;28;20030;-74
2023/04/01 13:24:24;;;;;;;2.83;1.60;;;12.50;99.90;;;;;;5017114;28;20056;-74
2023/04/01 13:27:08;;;;;;;2.30;1.13;;;12.50;99.90;;;;;;5016167;28;20021;-73
2023/04/01 13:29:41;;;;;;;4.50;1.80;;;12.60;99.90;;;;;;5016990;28;20056;-73
2023/04/01 13:32:25;;;;;;;0.98;0.80;;;12.50;99.90;;;;;;5016342;28;20025;-73
2023/04/01 13:35:22;;;;;;;2.50;1.30;;;12.60;99.90;;;;;;5017092;28;20017;-73
2023/04/01 13:38:22;;;;;;;1.75;1.10;;;12.70;99.90;;;;;;5016119;28;20022;-74